Time;durP1;ratioP1;P1;durP2;ratioP2;P2;SDS_P1;SDS_P2;PMS_P1;PMS_P2;Temp;Humidity;BMP_temperature;BMP_pressure;BME280_temperature;BME280_humidity;BME280_pressure;Samples;Min_cycle;Max_cycle;Signal;HPM_P1;HPM_P2
2023/01/06 00:01:18;;;;;;;14.75;1.40;;;11.10;99.90;;;;;;5100510;28;20035;-72
2023/01/06 00:03:50;;;;;;;9.18;1.15;;;11.10;99.90;;;;;;5116836;28;20472;-72
2023/01/06 00:06:21;;;;;;;7.40;1.20;;;11.10;99.90;;;;;;5117791;28;20081;-72
2023/01/06 00:08:49;;;;;;;17.02;2.05;;;11.10;99.90;;;;;;5084006;28;20054;-72
2023/01/06 00:11:17;;;;;;;13.68;1.85;;;11.10;99.90;;;;;;5099293;28;20058;-72
2023/01/06 00:13:45;;;;;;;14.48;1.50;;;11.00;99.90;;;;;;5083263;28;20051;-72
2023/01/06 00:16:15;;;;;;;13.02;1.73;;;11.00;99.90;;;;;;5118251;28;20047;-72
2023/01/06 00:18:43;;;;;;;11.10;1.67;;;11.10;99.90;;;;;;5098923;28;20047;-72
2023/01/06 00:21:12;;;;;;;8.10;1.38;;;11.00;99.90;;;;;;5099203;28;20043;-72
2023/01/06 00:23:40;;;;;;;12.50;1.75;;;11.00;99.90;;;;;;5116672;28;20054;-72
2023/01/06 00:26:09;;;;;;;13.32;1.80;;;11.10;99.90;;;;;;5117662;28;20510;-72
2023/01/06 00:28:37;;;;;;;13.18;1.48;;;11.10;99.90;;;;;;5100461;28;20048;-71
2023/01/06 00:31:10;;;;;;;12.05;1.50;;;11.10;99.90;;;;;;5082320;28;20051;-72
2023/01/06 00:33:40;;;;;;;14.88;1.77;;;11.10;99.90;;;;;;5099523;28;20379;-72
2023/01/06 00:36:10;;;;;;;11.38;1.40;;;11.30;99.90;;;;;;5083061;28;20051;-72
2023/01/06 00:38:38;;;;;;;12.90;1.50;;;11.10;99.90;;;;;;5099274;28;20043;-72
2023/01/06 00:42:02;;;;;;;9.15;1.40;;;11.10;99.90;;;;;;5117925;28;20050;-72
2023/01/06 00:43:57;;;;;;;9.65;1.42;;;11.10;99.90;;;;;;5081747;28;20454;-72
2023/01/06 00:46:29;;;;;;;12.43;1.60;;;11.10;99.90;;;;;;5117620;28;20464;-72
2023/01/06 00:48:59;;;;;;;10.82;1.45;;;11.10;99.90;;;;;;5099922;28;20044;-72
2023/01/06 00:51:38;;;;;;;14.02;1.75;;;11.10;99.90;;;;;;5098258;28;20048;-72
2023/01/06 00:54:10;;;;;;;9.60;1.40;;;11.10;99.90;;;;;;5117248;28;20056;-72
2023/01/06 00:56:40;;;;;;;8.88;1.35;;;11.10;99.90;;;;;;5117270;28;20048;-72
2023/01/06 00:59:08;;;;;;;6.88;1.17;;;11.00;99.90;;;;;;5098205;28;20040;-72
2023/01/06 01:01:37;;;;;;;11.60;1.27;;;11.20;99.90;;;;;;5116968;28;20044;-72
2023/01/06 01:04:06;;;;;;;9.65;1.30;;;11.00;99.90;;;;;;5098534;28;20050;-72
2023/01/06 01:06:35;;;;;;;7.60;1.35;;;11.00;99.90;;;;;;5116491;28;20043;-72
2023/01/06 01:09:04;;;;;;;8.55;1.10;;;10.90;99.90;;;;;;5116925;28;20464;-72
2023/01/06 01:14:18;;;;;;;13.32;1.80;;;11.00;99.90;;;;;;5098814;28;20380;-72
2023/01/06 01:16:46;;;;;;;13.60;1.83;;;11.00;99.90;;;;;;5116633;28;20051;-72
2023/01/06 01:19:14;;;;;;;12.95;1.80;;;11.00;99.90;;;;;;5081110;28;20047;-72
2023/01/06 01:21:42;;;;;;;15.35;1.60;;;11.50;99.90;;;;;;5116406;28;20047;-72
2023/01/06 01:24:10;;;;;;;10.75;1.25;;;11.00;99.90;;;;;;5097515;28;20048;-72
2023/01/06 01:26:37;;;;;;;11.27;1.67;;;11.20;99.90;;;;;;5116525;28;20414;-72
2023/01/06 01:29:05;;;;;;;16.25;1.90;;;11.20;99.90;;;;;;5098626;28;20357;-72
2023/01/06 01:31:33;;;;;;;11.13;1.63;;;11.10;99.90;;;;;;5115594;28;20463;-72
2023/01/06 01:34:01;;;;;;;12.93;1.65;;;11.10;99.90;;;;;;5098343;28;20036;-72
2023/01/06 01:36:29;;;;;;;8.38;1.23;;;11.10;99.90;;;;;;5116015;28;20051;-72
2023/01/06 01:38:58;;;;;;;11.80;1.35;;;11.00;99.90;;;;;;5097465;28;20460;-72
2023/01/06 01:41:27;;;;;;;11.88;1.55;;;11.10;99.90;;;;;;5116177;28;20463;-71
2023/01/06 01:44:01;;;;;;;16.65;1.73;;;11.00;99.90;;;;;;5097433;28;20055;-71
2023/01/06 01:46:35;;;;;;;14.52;1.55;;;11.00;99.90;;;;;;5098727;28;20046;-71
2023/01/06 01:49:25;;;;;;;12.50;1.38;;;11.00;99.90;;;;;;5098969;28;20063;-72
2023/01/06 01:51:55;;;;;;;15.02;1.52;;;11.00;99.90;;;;;;5097204;28;20066;-71
2023/01/06 01:54:28;;;;;;;10.25;1.48;;;11.00;99.90;;;;;;5116574;28;20051;-71
2023/01/06 01:57:10;;;;;;;10.48;1.42;;;10.90;99.90;;;;;;5097670;28;20044;-71
2023/01/06 01:59:40;;;;;;;8.40;1.30;;;10.90;99.90;;;;;;5098207;28;20044;-71
2023/01/06 02:02:08;;;;;;;10.65;1.20;;;10.90;99.90;;;;;;5116310;28;20071;-72
2023/01/06 02:04:40;;;;;;;16.20;1.60;;;10.90;99.90;;;;;;5080425;28;20043;-71
2023/01/06 02:07:08;;;;;;;10.05;1.30;;;10.90;99.90;;;;;;5080873;28;20480;-72
2023/01/06 02:09:56;;;;;;;;;;;10.90;99.90;;;;;;5098206;28;20047;-71
2023/01/06 02:12:23;;;;;;;10.57;1.25;;;10.90;99.90;;;;;;5096667;28;19920;-71
2023/01/06 02:14:51;;;;;;;3.22;0.73;;;10.90;99.90;;;;;;5080955;28;20040;-71
2023/01/06 02:17:43;;;;;;;5.95;0.90;;;10.90;99.90;;;;;;5080188;28;20047;-72
2023/01/06 02:20:29;;;;;;;3.92;0.52;;;10.90;99.90;;;;;;5098245;28;20055;-71
2023/01/06 02:23:09;;;;;;;4.57;0.68;;;10.90;99.90;;;;;;5081024;28;20044;-72
2023/01/06 02:26:05;;;;;;;5.85;0.63;;;10.90;99.90;;;;;;5080082;28;20467;-72
2023/01/06 02:29:07;;;;;;;6.57;0.77;;;10.90;99.90;;;;;;5097709;28;20039;-70
2023/01/06 02:31:59;;;;;;;4.30;0.50;;;10.80;99.90;;;;;;5063213;28;20430;-71
2023/01/06 02:34:40;;;;;;;2.67;0.30;;;10.70;99.90;;;;;;5097906;28;20042;-71
2023/01/06 02:37:41;;;;;;;1.95;0.28;;;10.50;99.90;;;;;;5096632;28;20479;-71
2023/01/06 02:40:20;;;;;;;1.48;0.20;;;10.40;99.90;;;;;;5098043;28;20047;-71
2023/01/06 02:42:58;;;;;;;1.40;0.28;;;10.30;99.90;;;;;;5115733;28;20059;-71
2023/01/06 02:45:34;;;;;;;4.43;0.40;;;10.20;99.90;;;;;;5114346;28;20047;-70
2023/01/06 02:48:13;;;;;;;5.22;0.40;;;10.10;99.90;;;;;;5114995;28;20055;-70
2023/01/06 02:50:53;;;;;;;2.50;0.30;;;10.00;99.90;;;;;;5096488;28;20341;-70
2023/01/06 02:53:38;;;;;;;2.03;0.40;;;10.00;99.90;;;;;;5080515;28;20048;-71
2023/01/06 02:56:06;;;;;;;4.72;0.30;;;9.90;99.90;;;;;;5080442;28;20058;-70
2023/01/06 02:59:01;;;;;;;2.03;0.30;;;9.80;99.90;;;;;;5079617;28;20067;-70
2023/01/06 03:01:36;;;;;;;6.20;0.35;;;10.00;99.90;;;;;;5097729;28;20040;-70
2023/01/06 03:04:08;;;;;;;3.03;0.30;;;9.60;99.90;;;;;;5096584;28;20051;-71
2023/01/06 03:06:43;;;;;;;2.22;0.30;;;9.50;99.90;;;;;;5097098;28;20062;-70
2023/01/06 03:09:17;;;;;;;1.75;0.30;;;10.60;99.90;;;;;;5081757;28;20048;-71
2023/01/06 03:11:48;;;;;;;4.10;0.30;;;9.30;99.90;;;;;;5066744;28;20055;-71
2023/01/06 03:14:54;;;;;;;2.85;0.40;;;9.30;99.90;;;;;;5101630;28;20044;-70
2023/01/06 03:17:23;;;;;;;2.03;0.20;;;9.20;99.90;;;;;;5015658;28;20409;-70
2023/01/06 03:19:51;;;;;;;1.10;0.40;;;9.10;99.90;;;;;;5067383;28;20047;-70
2023/01/06 03:22:19;;;;;;;;;;;9.00;99.90;;;;;;5101473;28;20058;-70
2023/01/06 03:24:47;;;;;;;2.20;0.25;;;8.90;99.90;;;;;;5100471;28;19920;-71
2023/01/06 03:27:21;;;;;;;1.90;0.40;;;10.30;99.90;;;;;;5084657;28;20379;-70
2023/01/06 03:29:49;;;;;;;5.82;0.55;;;8.70;99.90;;;;;;5101505;28;20051;-70
2023/01/06 03:32:23;;;;;;;;;;;9.60;99.90;;;;;;5100232;28;20048;-70
2023/01/06 03:35:13;;;;;;;3.28;0.43;;;8.60;99.90;;;;;;5100734;28;19938;-70
2023/01/06 03:38:28;;;;;;;3.22;0.32;;;8.50;99.90;;;;;;5066534;28;20519;-70
2023/01/06 03:41:02;;;;;;;2.10;0.40;;;8.40;99.90;;;;;;5110038;28;20400;-70
2023/01/06 03:43:29;;;;;;;0.98;0.40;;;8.30;99.90;;;;;;5100673;28;20449;-70
2023/01/06 03:46:28;;;;;;;3.30;0.40;;;8.50;99.90;;;;;;5099931;28;20054;-71
2023/01/06 03:48:59;;;;;;;2.42;0.47;;;8.20;99.90;;;;;;5101009;28;20055;-71
2023/01/06 03:51:49;;;;;;;1.60;0.40;;;8.10;99.90;;;;;;5099666;28;20044;-70
2023/01/06 03:54:28;;;;;;;4.72;0.60;;;8.00;99.90;;;;;;5084115;28;20452;-71
2023/01/06 03:57:15;;;;;;;3.45;0.45;;;8.00;99.90;;;;;;5099919;28;20048;-70
2023/01/06 03:59:48;;;;;;;3.47;0.47;;;7.90;99.90;;;;;;5100447;28;20039;-71
2023/01/06 04:02:19;;;;;;;2.90;0.50;;;8.00;99.90;;;;;;5118577;28;20448;-70
2023/01/06 04:05:26;;;;;;;2.85;0.40;;;8.20;99.90;;;;;;5099385;28;20043;-70
2023/01/06 04:07:56;;;;;;;5.45;0.70;;;7.80;99.90;;;;;;5045023;28;20060;-70
2023/01/06 04:10:23;;;;;;;5.75;0.65;;;7.70;99.90;;;;;;5117527;28;20344;-70
2023/01/06 04:12:55;;;;;;;7.93;0.65;;;7.70;99.90;;;;;;5100163;28;20043;-70
2023/01/06 04:15:31;;;;;;;4.68;0.52;;;7.60;99.90;;;;;;5083237;28;20384;-70
2023/01/06 04:18:00;;;;;;;2.35;0.55;;;7.60;99.90;;;;;;5116820;28;20043;-71
2023/01/06 04:20:31;;;;;;;4.35;0.50;;;7.50;99.90;;;;;;5099711;28;20043;-70
2023/01/06 04:23:31;;;;;;;5.20;0.73;;;7.50;99.90;;;;;;5108249;28;20036;-71
2023/01/06 04:26:02;;;;;;;7.68;1.02;;;7.50;99.90;;;;;;5099327;28;20050;-71
2023/01/06 04:28:35;;;;;;;10.63;0.90;;;7.40;99.90;;;;;;5117781;28;20040;-71
2023/01/06 04:31:03;;;;;;;5.50;0.98;;;7.30;99.90;;;;;;5099171;28;20047;-70
2023/01/06 04:33:34;;;;;;;4.38;0.73;;;7.30;99.90;;;;;;5083611;28;20043;-70
2023/01/06 04:36:05;;;;;;;4.75;0.95;;;7.30;99.90;;;;;;5099440;28;20344;-71
2023/01/06 04:38:34;;;;;;;8.90;1.05;;;7.30;99.90;;;;;;5098725;28;20367;-70
2023/01/06 04:41:01;;;;;;;8.32;0.90;;;7.20;99.90;;;;;;5117183;28;20476;-70
2023/01/06 04:43:29;;;;;;;8.07;0.80;;;7.20;99.90;;;;;;5117277;28;20040;-70
2023/01/06 04:45:58;;;;;;;7.63;0.77;;;7.10;99.90;;;;;;5098729;28;20375;-70
2023/01/06 04:48:25;;;;;;;7.30;0.80;;;7.10;99.90;;;;;;5082688;28;20048;-70
2023/01/06 04:51:01;;;;;;;4.13;0.70;;;7.00;99.90;;;;;;5098693;28;20043;-70
2023/01/06 04:53:29;;;;;;;6.45;0.82;;;8.00;99.90;;;;;;5099246;28;20048;-71
2023/01/06 04:56:01;;;;;;;11.48;0.90;;;7.00;99.90;;;;;;5099533;28;20055;-71
2023/01/06 04:58:29;;;;;;;6.90;1.10;;;6.90;99.90;;;;;;5116246;28;20070;-71
2023/01/06 05:01:05;;;;;;;9.32;0.90;;;7.10;99.90;;;;;;5116813;28;20058;-71
2023/01/06 05:03:34;;;;;;;6.88;0.88;;;6.80;99.90;;;;;;5098995;28;20044;-71
2023/01/06 05:06:10;;;;;;;7.10;0.80;;;7.00;99.90;;;;;;5116029;28;20040;-70
2023/01/06 05:08:39;;;;;;;7.45;0.65;;;6.70;99.90;;;;;;5116726;28;20464;-71
2023/01/06 05:11:09;;;;;;;8.18;0.80;;;6.70;99.90;;;;;;5098091;28;20047;-70
2023/01/06 05:13:37;;;;;;;8.10;0.65;;;6.60;99.90;;;;;;5099412;28;20067;-71
2023/01/06 05:16:10;;;;;;;7.82;0.95;;;7.90;99.90;;;;;;5116540;28;20039;-70
2023/01/06 05:18:37;;;;;;;8.73;0.73;;;6.60;99.90;;;;;;5115630;28;20498;-70
2023/01/06 05:21:05;;;;;;;9.75;0.88;;;6.60;99.90;;;;;;5116863;28;20491;-71
2023/01/06 05:23:33;;;;;;;10.05;0.82;;;6.50;99.90;;;;;;5116556;28;20059;-71
2023/01/06 05:26:00;;;;;;;4.85;0.55;;;6.50;99.90;;;;;;5115931;28;20360;-71
2023/01/06 05:28:29;;;;;;;8.00;0.55;;;6.50;99.90;;;;;;5116329;28;20055;-71
2023/01/06 05:31:01;;;;;;;8.55;0.98;;;6.90;99.90;;;;;;5115244;28;20047;-70
2023/01/06 05:33:29;;;;;;;5.75;0.65;;;7.30;99.90;;;;;;5098834;28;20044;-70
2023/01/06 05:36:06;;;;;;;7.60;0.70;;;6.70;99.90;;;;;;5116358;28;20047;-70
2023/01/06 05:38:34;;;;;;;9.77;1.00;;;6.40;99.90;;;;;;5080565;28;20051;-71
2023/01/06 05:41:01;;;;;;;7.30;0.75;;;6.40;99.90;;;;;;5116648;28;20372;-71
2023/01/06 05:43:31;;;;;;;5.57;0.75;;;6.40;99.90;;;;;;5081424;28;20050;-71
2023/01/06 05:46:02;;;;;;;11.45;1.00;;;6.40;99.90;;;;;;5097202;28;20048;-71
2023/01/06 05:48:30;;;;;;;10.98;0.98;;;6.30;99.90;;;;;;5098529;28;20047;-71
2023/01/06 05:51:06;;;;;;;8.10;0.85;;;6.30;99.90;;;;;;5114963;28;20467;-71
2023/01/06 05:53:35;;;;;;;7.50;0.95;;;6.30;99.90;;;;;;5081975;28;20048;-71
2023/01/06 05:56:08;;;;;;;12.13;1.15;;;6.40;99.90;;;;;;5081151;28;20055;-71
2023/01/06 05:58:39;;;;;;;9.40;0.82;;;6.40;99.90;;;;;;5097241;28;20365;-71
2023/01/06 06:01:15;;;;;;;8.18;0.60;;;6.40;99.90;;;;;;5116116;28;20059;-71
2023/01/06 06:03:43;;;;;;;8.90;0.95;;;6.40;99.90;;;;;;5080215;28;20040;-71
2023/01/06 06:06:11;;;;;;;7.32;0.60;;;6.40;99.90;;;;;;5115613;28;20043;-71
2023/01/06 06:08:38;;;;;;;7.70;1.10;;;6.80;99.90;;;;;;5115742;28;20059;-71
2023/01/06 06:11:12;;;;;;;4.50;0.60;;;6.40;99.90;;;;;;5079940;28;20066;-71
2023/01/06 06:13:51;;;;;;;6.20;0.80;;;6.90;99.90;;;;;;5081395;28;20070;-70
2023/01/06 06:16:21;;;;;;;8.65;0.93;;;6.40;99.90;;;;;;5097764;28;20048;-71
2023/01/06 06:18:51;;;;;;;7.05;0.80;;;6.40;99.90;;;;;;5096803;28;20472;-71
2023/01/06 06:21:29;;;;;;;8.40;0.70;;;6.40;99.90;;;;;;5081267;28;20498;-71
2023/01/06 06:23:58;;;;;;;5.93;0.60;;;6.50;99.90;;;;;;5114497;28;20043;-71
2023/01/06 06:26:26;;;;;;;8.00;0.70;;;6.40;99.90;;;;;;5116043;28;20051;-70
2023/01/06 06:28:54;;;;;;;8.20;0.77;;;6.30;99.90;;;;;;5098048;28;20060;-70
2023/01/06 06:31:26;;;;;;;6.60;0.60;;;6.30;99.90;;;;;;5063146;28;20059;-71
2023/01/06 06:33:57;;;;;;;4.88;0.60;;;6.20;99.90;;;;;;5115654;28;20125;-71
2023/01/06 06:36:25;;;;;;;7.85;0.60;;;6.20;99.90;;;;;;5080467;28;20052;-71
2023/01/06 06:38:53;;;;;;;5.65;0.93;;;6.20;99.90;;;;;;5114312;28;20047;-71
2023/01/06 06:41:22;;;;;;;12.70;0.88;;;7.20;99.90;;;;;;5097184;28;20047;-71
2023/01/06 06:43:50;;;;;;;8.85;0.77;;;6.10;99.90;;;;;;5096325;28;20329;-71
2023/01/06 06:46:18;;;;;;;;;;;6.10;99.90;;;;;;5115429;28;20046;-71
2023/01/06 06:48:45;;;;;;;7.57;0.80;;;6.10;99.90;;;;;;5097482;28;19920;-71
2023/01/06 06:51:17;;;;;;;5.80;0.63;;;6.00;99.90;;;;;;5114233;28;20070;-70
2023/01/06 06:53:46;;;;;;;13.02;0.73;;;6.00;99.90;;;;;;5097606;28;20051;-70
2023/01/06 06:56:14;;;;;;;;;;;6.00;99.90;;;;;;5115383;28;20059;-71
2023/01/06 06:58:41;;;;;;;5.10;0.55;;;6.00;99.90;;;;;;5096403;28;20271;-71
2023/01/06 07:01:14;;;;;;;6.05;0.70;;;6.00;99.90;;;;;;5097253;28;20048;-71
2023/01/06 07:03:42;;;;;;;9.57;0.73;;;6.10;99.90;;;;;;5096623;28;20467;-71
2023/01/06 07:06:13;;;;;;;7.22;0.68;;;6.00;99.90;;;;;;5088564;28;20044;-71
2023/01/06 07:08:43;;;;;;;6.10;0.55;;;6.00;99.90;;;;;;5077017;28;20055;-71
2023/01/06 07:11:10;;;;;;;5.22;0.50;;;6.00;99.90;;;;;;5059836;28;20052;-71
2023/01/06 07:13:38;;;;;;;2.97;0.60;;;6.00;99.90;;;;;;5076700;28;20044;-71
2023/01/06 07:16:06;;;;;;;7.05;0.75;;;6.00;99.90;;;;;;5094561;28;20360;-73
2023/01/06 07:18:34;;;;;;;6.57;0.60;;;5.90;99.90;;;;;;5075875;28;20040;-71
2023/01/06 07:21:01;;;;;;;12.27;1.10;;;5.90;99.90;;;;;;5060023;28;20357;-71
2023/01/06 07:23:31;;;;;;;7.85;0.85;;;5.90;99.90;;;;;;5094209;28;20041;-71
2023/01/06 07:26:01;;;;;;;5.70;0.90;;;5.90;99.90;;;;;;5093345;28;20036;-71
2023/01/06 07:28:30;;;;;;;6.03;0.80;;;5.80;99.90;;;;;;5094856;28;20460;-71
2023/01/06 07:30:57;;;;;;;9.02;0.75;;;5.80;99.90;;;;;;5093255;28;20047;-71
2023/01/06 07:33:25;;;;;;;7.15;1.10;;;5.80;99.90;;;;;;5043274;28;20052;-71
2023/01/06 07:35:54;;;;;;;13.50;0.80;;;5.70;99.90;;;;;;5094118;28;20039;-71
2023/01/06 07:38:23;;;;;;;3.13;0.60;;;5.80;99.90;;;;;;5075776;28;20040;-71
2023/01/06 07:40:50;;;;;;;10.68;0.93;;;5.70;99.90;;;;;;5076840;28;20499;-73
2023/01/06 07:43:18;;;;;;;5.80;0.93;;;5.70;99.90;;;;;;5094265;28;20346;-73
2023/01/06 07:45:47;;;;;;;9.18;1.00;;;6.90;99.90;;;;;;5075353;28;20040;-73
2023/01/06 07:48:15;;;;;;;5.85;1.13;;;5.70;99.90;;;;;;5059665;28;20048;-74
2023/01/06 07:50:43;;;;;;;;;;;5.70;99.90;;;;;;5093611;28;20048;-70
2023/01/06 07:53:11;;;;;;;8.00;0.65;;;5.70;99.90;;;;;;5076042;28;19920;-71
2023/01/06 07:55:38;;;;;;;6.10;0.75;;;5.90;99.90;;;;;;5044515;28;20380;-73
2023/01/06 07:58:07;;;;;;;9.75;0.90;;;5.70;99.90;;;;;;5078689;28;20062;-72
2023/01/06 08:00:35;;;;;;;9.50;1.05;;;5.70;99.90;;;;;;5097408;28;20055;-73
2023/01/06 08:03:05;;;;;;;4.70;0.65;;;5.70;99.90;;;;;;5079514;28;20052;-72
2023/01/06 08:05:40;;;;;;;8.43;1.00;;;5.60;99.90;;;;;;5099761;28;20109;-72
2023/01/06 08:08:11;;;;;;;6.38;0.75;;;5.60;99.90;;;;;;5099411;28;20510;-73
2023/01/06 08:10:41;;;;;;;19.25;1.80;;;5.70;99.90;;;;;;5116598;28;20199;-72
2023/01/06 08:13:09;;;;;;;9.48;1.00;;;5.80;99.90;;;;;;5117486;28;20133;-73
2023/01/06 08:15:37;;;;;;;10.77;1.50;;;5.80;99.90;;;;;;5099659;28;20047;-73
2023/01/06 08:18:05;;;;;;;8.52;0.95;;;5.90;99.90;;;;;;5116284;28;20050;-73
2023/01/06 08:20:33;;;;;;;11.00;1.58;;;6.00;99.90;;;;;;5117381;28;20046;-73
2023/01/06 08:23:01;;;;;;;7.90;1.00;;;6.00;99.90;;;;;;5099218;28;20384;-73
2023/01/06 08:25:29;;;;;;;9.32;1.40;;;6.10;99.90;;;;;;5116118;28;20464;-72
2023/01/06 08:27:58;;;;;;;9.63;2.28;;;6.10;99.90;;;;;;5065549;28;20062;-73
2023/01/06 08:30:27;;;;;;;4.25;0.80;;;6.20;99.90;;;;;;5106322;28;20039;-74
2023/01/06 08:32:56;;;;;;;6.80;0.90;;;6.20;99.90;;;;;;5116581;28;20036;-73
2023/01/06 08:35:24;;;;;;;10.02;2.22;;;6.20;99.90;;;;;;5082441;28;20055;-74
2023/01/06 08:37:52;;;;;;;11.13;2.08;;;6.70;99.90;;;;;;5082088;28;20063;-73
2023/01/06 08:40:19;;;;;;;6.70;2.08;;;6.30;99.90;;;;;;5083019;28;20067;-73
2023/01/06 08:42:47;;;;;;;5.50;1.40;;;6.30;99.90;;;;;;5099462;28;20391;-74
2023/01/06 08:45:15;;;;;;;7.20;0.80;;;6.30;99.90;;;;;;5116423;28;20054;-73
2023/01/06 08:47:42;;;;;;;7.72;0.70;;;6.30;99.90;;;;;;5116597;28;20043;-73
2023/01/06 08:50:10;;;;;;;4.65;0.47;;;6.40;99.90;;;;;;5099446;28;20055;-73
2023/01/06 08:52:37;;;;;;;4.28;0.60;;;6.40;99.90;;;;;;5116162;28;20051;-74
2023/01/06 08:55:05;;;;;;;4.60;0.85;;;6.30;99.90;;;;;;5117641;28;20040;-74
2023/01/06 08:57:33;;;;;;;8.95;0.70;;;6.30;99.90;;;;;;5116459;28;20048;-74
2023/01/06 09:00:02;;;;;;;3.58;0.88;;;6.40;99.90;;;;;;5116694;28;20371;-75
2023/01/06 09:02:30;;;;;;;11.85;1.38;;;6.40;99.90;;;;;;5116892;28;20043;-74
2023/01/06 09:04:57;;;;;;;5.93;0.73;;;7.50;99.90;;;;;;5115954;28;20047;-74
2023/01/06 09:07:25;;;;;;;7.88;0.90;;;6.40;99.90;;;;;;5115342;28;20044;-74
2023/01/06 09:09:52;;;;;;;5.00;0.77;;;8.00;99.90;;;;;;5082378;28;20403;-73
2023/01/06 09:12:20;;;;;;;12.18;1.00;;;6.50;99.90;;;;;;5097464;28;20479;-74
2023/01/06 09:14:48;;;;;;;8.77;0.70;;;6.50;99.90;;;;;;5116317;28;20621;-74
2023/01/06 09:17:15;;;;;;;8.88;1.05;;;6.40;99.90;;;;;;5098033;28;20043;-75
2023/01/06 09:19:43;;;;;;;3.20;0.80;;;7.20;99.90;;;;;;5098677;28;20050;-74
2023/01/06 09:22:10;;;;;;;7.43;0.77;;;6.50;99.90;;;;;;5081662;28;20054;-74
2023/01/06 09:24:38;;;;;;;11.52;1.02;;;6.50;99.90;;;;;;5115244;28;20043;-74
2023/01/06 09:27:05;;;;;;;9.55;1.10;;;6.60;99.90;;;;;;5116682;28;20054;-74
2023/01/06 09:29:33;;;;;;;10.23;1.05;;;6.60;99.90;;;;;;5065099;28;20073;-75
2023/01/06 09:32:02;;;;;;;5.93;0.77;;;6.60;99.90;;;;;;5097748;28;20044;-73
2023/01/06 09:34:29;;;;;;;12.23;0.95;;;8.20;99.90;;;;;;5081575;28;20062;-73
2023/01/06 09:36:57;;;;;;;4.93;0.82;;;6.60;99.90;;;;;;5116036;28;20067;-73
2023/01/06 09:39:25;;;;;;;7.40;1.10;;;6.70;99.90;;;;;;5098703;28;20043;-73
2023/01/06 09:42:31;;;;;;;7.22;0.93;;;8.30;99.90;;;;;;5116108;28;20456;-73
2023/01/06 09:45:06;;;;;;;10.70;1.20;;;6.80;99.90;;;;;;5080154;28;20044;-73
2023/01/06 09:47:43;;;;;;;12.20;1.67;;;6.80;99.90;;;;;;5098717;28;20044;-73
2023/01/06 09:50:30;;;;;;;8.68;1.27;;;8.10;99.90;;;;;;5115993;28;20048;-73
2023/01/06 09:53:09;;;;;;;7.40;1.10;;;6.90;99.90;;;;;;5081371;28;20052;-73
2023/01/06 09:55:46;;;;;;;9.55;1.00;;;7.20;99.90;;;;;;5064707;28;20055;-73
2023/01/06 09:58:20;;;;;;;11.55;1.20;;;7.00;99.90;;;;;;5114592;28;20048;-72
2023/01/06 10:00:53;;;;;;;11.00;1.30;;;7.00;99.90;;;;;;5081490;28;20040;-73
2023/01/06 10:03:27;;;;;;;5.78;1.10;;;7.10;99.90;;;;;;5098066;28;20044;-73
2023/01/06 10:06:26;;;;;;;11.07;1.50;;;7.20;99.90;;;;;;5079614;28;20067;-73
2023/01/06 10:08:56;;;;;;;7.90;1.23;;;7.20;99.90;;;;;;5098292;28;20058;-73
2023/01/06 10:11:33;;;;;;;11.73;1.20;;;7.20;99.90;;;;;;5079963;28;20044;-73
2023/01/06 10:14:19;;;;;;;7.88;1.38;;;7.30;99.90;;;;;;5097807;28;20039;-73
2023/01/06 10:17:17;;;;;;;8.23;1.60;;;7.30;99.90;;;;;;5115431;28;20050;-73
2023/01/06 10:20:26;;;;;;;12.43;1.70;;;7.30;99.90;;;;;;5097798;28;20051;-73
2023/01/06 10:23:18;;;;;;;6.72;1.52;;;7.30;99.90;;;;;;5077128;28;20392;-73
2023/01/06 10:25:52;;;;;;;12.75;1.60;;;7.40;99.90;;;;;;5113097;28;20048;-73
2023/01/06 10:28:34;;;;;;;10.77;1.45;;;8.70;99.90;;;;;;5115475;28;20035;-72
2023/01/06 10:31:06;;;;;;;10.05;1.60;;;7.50;99.90;;;;;;5114091;28;20058;-73
2023/01/06 10:33:39;;;;;;;8.82;1.40;;;8.90;99.90;;;;;;5097853;28;20051;-73
2023/01/06 10:36:15;;;;;;;9.25;1.25;;;7.50;99.90;;;;;;5115169;28;20047;-73
2023/01/06 10:38:54;;;;;;;10.98;1.40;;;7.60;99.90;;;;;;5096451;28;20052;-73
2023/01/06 10:41:26;;;;;;;10.00;1.27;;;7.80;99.90;;;;;;5115229;28;20062;-73
2023/01/06 10:43:53;;;;;;;8.82;1.20;;;8.00;99.90;;;;;;5096835;28;20044;-73
2023/01/06 10:46:21;;;;;;;7.18;1.30;;;8.00;99.90;;;;;;5097353;28;20052;-73
2023/01/06 10:48:48;;;;;;;11.18;1.48;;;8.10;99.90;;;;;;5115072;28;20043;-73
2023/01/06 10:51:37;;;;;;;9.70;1.85;;;8.20;99.90;;;;;;5079584;28;20048;-73
2023/01/06 10:54:28;;;;;;;6.72;1.30;;;8.30;99.90;;;;;;5097639;28;20463;-75
2023/01/06 10:57:01;;;;;;;10.23;1.40;;;8.40;99.90;;;;;;5080629;28;20379;-73
2023/01/06 10:59:29;;;;;;;9.88;1.50;;;9.20;99.90;;;;;;5097355;28;20046;-72
2023/01/06 11:01:57;;;;;;;10.80;1.40;;;8.60;99.90;;;;;;5114781;28;20059;-73
2023/01/06 11:04:27;;;;;;;7.88;1.55;;;8.60;99.90;;;;;;5096289;28;20064;-73
2023/01/06 11:07:00;;;;;;;9.50;1.60;;;9.60;99.90;;;;;;5097142;28;20072;-73
2023/01/06 11:09:44;;;;;;;8.10;1.30;;;8.70;99.90;;;;;;5115017;28;20044;-72
2023/01/06 11:12:15;;;;;;;6.25;1.15;;;8.70;99.90;;;;;;5113884;28;20048;-73
2023/01/06 11:14:52;;;;;;;8.40;1.27;;;8.80;99.90;;;;;;5080300;28;20047;-72
2023/01/06 11:17:21;;;;;;;10.63;1.27;;;8.90;99.90;;;;;;5079533;28;20373;-72
2023/01/06 11:20:07;;;;;;;8.05;1.30;;;10.20;99.90;;;;;;5080384;28;20063;-75
2023/01/06 11:22:40;;;;;;;8.90;1.30;;;9.00;99.90;;;;;;5096928;28;20048;-74
2023/01/06 11:25:19;;;;;;;8.75;1.23;;;9.60;99.90;;;;;;5078993;28;20062;-74
2023/01/06 11:28:10;;;;;;;8.82;1.40;;;10.10;99.90;;;;;;5097483;28;20058;-74
2023/01/06 11:31:02;;;;;;;11.27;1.60;;;9.30;99.90;;;;;;5083128;28;20698;-75
2023/01/06 11:33:33;;;;;;;9.07;1.42;;;9.40;99.90;;;;;;5100896;28;20055;-74
2023/01/06 11:36:13;;;;;;;9.00;1.83;;;9.50;99.90;;;;;;5100707;28;20062;-74
2023/01/06 11:38:43;;;;;;;7.88;1.52;;;9.60;99.90;;;;;;5117261;28;20054;-75
2023/01/06 11:41:12;;;;;;;12.80;1.60;;;9.90;99.90;;;;;;5118514;28;20063;-75
2023/01/06 11:43:44;;;;;;;10.65;1.65;;;9.80;99.90;;;;;;5117176;28;20050;-75
2023/01/06 11:46:13;;;;;;;12.70;1.85;;;9.90;99.90;;;;;;5101050;28;20043;-75
2023/01/06 11:48:56;;;;;;;7.82;1.48;;;9.90;99.90;;;;;;5083926;28;20379;-75
2023/01/06 11:51:40;;;;;;;12.65;1.70;;;10.00;99.90;;;;;;5099537;28;20051;-74
2023/01/06 11:54:24;;;;;;;15.20;1.40;;;10.00;99.90;;;;;;5100414;28;20463;-75
2023/01/06 11:57:18;;;;;;;11.65;1.55;;;10.00;99.90;;;;;;5118325;28;20055;-75
2023/01/06 12:00:03;;;;;;;10.73;1.27;;;10.00;99.90;;;;;;5096529;28;20058;-74
2023/01/06 12:03:08;;;;;;;12.70;1.85;;;9.90;99.90;;;;;;5100583;28;20113;-74
2023/01/06 12:05:55;;;;;;;14.25;1.90;;;9.90;99.90;;;;;;5116752;28;20047;-74
2023/01/06 12:08:34;;;;;;;6.70;1.50;;;10.70;99.90;;;;;;5083646;28;20051;-74
2023/01/06 12:11:14;;;;;;;9.88;1.55;;;9.90;99.90;;;;;;5098839;28;20395;-75
2023/01/06 12:13:43;;;;;;;11.55;1.70;;;9.80;99.90;;;;;;5100071;28;20067;-74
2023/01/06 12:16:51;;;;;;;14.38;1.77;;;10.80;99.90;;;;;;5086099;28;20043;-74
2023/01/06 12:19:35;;;;;;;9.00;1.40;;;11.80;99.90;;;;;;5116794;28;20047;-75
2023/01/06 12:22:04;;;;;;;8.35;1.35;;;10.00;99.90;;;;;;5099825;28;20062;-74
2023/01/06 12:24:34;;;;;;;9.52;1.50;;;10.10;99.90;;;;;;5116558;28;20040;-75
2023/01/06 12:27:03;;;;;;;9.30;1.30;;;10.10;99.90;;;;;;5100319;28;20048;-74
2023/01/06 12:29:33;;;;;;;13.38;1.40;;;10.20;99.90;;;;;;5082896;28;20043;-74
2023/01/06 12:32:17;;;;;;;10.40;1.40;;;10.20;99.90;;;;;;5098375;28;20056;-74
2023/01/06 12:34:48;;;;;;;9.85;1.50;;;10.20;99.90;;;;;;5117549;28;20044;-74
2023/01/06 12:37:36;;;;;;;12.35;1.35;;;10.20;99.90;;;;;;5116320;28;20047;-73
2023/01/06 12:40:32;;;;;;;9.52;1.13;;;10.20;99.90;;;;;;5099251;28;20048;-75
2023/01/06 12:43:18;;;;;;;9.77;1.00;;;10.10;99.90;;;;;;5117322;28;20040;-74
2023/01/06 12:46:08;;;;;;;12.52;1.17;;;10.10;99.90;;;;;;5098443;28;20375;-74
2023/01/06 12:48:52;;;;;;;11.52;1.38;;;10.10;99.90;;;;;;5099469;28;20062;-74
2023/01/06 12:51:27;;;;;;;9.50;1.10;;;10.10;99.90;;;;;;5081957;28;20052;-74
2023/01/06 12:54:03;;;;;;;5.35;1.10;;;10.10;99.90;;;;;;5099404;28;20047;-75
2023/01/06 12:56:33;;;;;;;6.85;1.23;;;10.10;99.90;;;;;;5082503;28;20043;-74
2023/01/06 12:59:26;;;;;;;7.53;1.27;;;10.20;99.90;;;;;;5097845;28;20047;-74
2023/01/06 13:02:25;;;;;;;13.25;1.60;;;10.30;99.90;;;;;;5098907;28;20043;-76
2023/01/06 13:05:02;;;;;;;11.45;1.40;;;10.30;99.90;;;;;;5081679;28;20044;-74
2023/01/06 13:07:47;;;;;;;7.90;1.13;;;10.30;99.90;;;;;;5116437;28;20456;-75
2023/01/06 13:10:38;;;;;;;11.43;1.20;;;10.40;99.90;;;;;;5098569;28;20048;-75
2023/01/06 13:13:30;;;;;;;12.70;1.23;;;10.40;99.90;;;;;;5098652;28;20054;-75
2023/01/06 13:16:18;;;;;;;8.48;0.95;;;10.40;99.90;;;;;;5081800;28;20050;-75
2023/01/06 13:18:50;;;;;;;12.07;1.20;;;10.50;99.90;;;;;;5080259;28;20058;-75
2023/01/06 13:21:20;;;;;;;10.52;1.40;;;10.50;99.90;;;;;;5098474;28;20360;-76
2023/01/06 13:24:06;;;;;;;11.80;1.20;;;10.50;99.90;;;;;;5080458;28;20039;-76
2023/01/06 13:27:16;;;;;;;10.55;1.38;;;10.50;99.90;;;;;;5098252;28;20364;-74
2023/01/06 13:30:04;;;;;;;12.65;1.40;;;10.50;99.90;;;;;;5048719;28;20043;-75
2023/01/06 13:32:50;;;;;;;7.18;1.38;;;10.60;99.90;;;;;;5114626;28;20039;-74